Time;durP1;ratioP1;P1;durP2;ratioP2;P2;SDS_P1;SDS_P2;PMS_P1;PMS_P2;Temp;Humidity;BMP_temperature;BMP_pressure;BME280_temperature;BME280_humidity;BME280_pressure;Samples;Min_cycle;Max_cycle;Signal;HPM_P1;HPM_P2
2023/10/03 00:01:37;;;;;;;27.37;9.67;;;12.80;1.00;;;;;;4998894;28;20447;-77
2023/10/03 00:04:15;;;;;;;27.40;9.17;;;12.80;1.00;;;;;;5016173;28;20924;-78
2023/10/03 00:10:12;;;;;;;26.40;8.10;;;12.80;1.00;;;;;;5006863;28;20794;-78
2023/10/03 00:12:51;;;;;;;20.63;7.63;;;12.80;1.00;;;;;;5015714;28;20406;-78
2023/10/03 00:15:28;;;;;;;21.30;7.40;;;12.70;1.00;;;;;;5011284;28;20427;-78
2023/10/03 00:17:57;;;;;;;35.57;9.77;;;12.70;1.00;;;;;;5007848;28;20796;-79
2023/10/03 00:20:27;;;;;;;17.83;7.33;;;12.70;1.00;;;;;;5008769;28;20427;-77
2023/10/03 00:23:14;;;;;;;25.30;8.60;;;13.10;1.00;;;;;;5012422;28;20416;-78
2023/10/03 00:32:45;;;;;;;18.37;7.27;;;12.70;1.00;;;;;;5005515;28;20428;-81
2023/10/03 00:39:06;;;;;;;18.37;7.20;;;12.60;1.00;;;;;;5014392;28;20407;-80
2023/10/03 00:41:34;;;;;;;18.20;7.57;;;12.50;1.00;;;;;;5021532;28;20421;-78
2023/10/03 00:51:32;;;;;;;62.47;11.70;;;12.30;1.00;;;;;;5012839;28;20478;-77
2023/10/03 00:54:27;;;;;;;24.63;8.30;;;12.30;1.00;;;;;;5011555;28;20444;-78
2023/10/03 01:00:17;;;;;;;22.97;8.80;;;12.30;1.00;;;;;;5008886;28;20467;-80
2023/10/03 01:02:52;;;;;;;29.40;7.80;;;12.30;1.00;;;;;;5014444;28;20443;-80
2023/10/03 01:05:33;;;;;;;19.93;6.93;;;12.20;1.00;;;;;;5015031;28;20446;-81
2023/10/03 01:11:23;;;;;;;29.10;9.10;;;12.20;1.00;;;;;;5014158;28;20454;-77
2023/10/03 01:14:09;;;;;;;18.37;8.10;;;12.10;1.00;;;;;;5017843;28;20911;-77
2023/10/03 01:16:36;;;;;;;25.57;8.70;;;12.20;1.00;;;;;;5003422;28;20409;-78
2023/10/03 01:22:54;;;;;;;23.87;8.33;;;12.10;1.00;;;;;;5004749;28;20492;-78
2023/10/03 01:25:21;;;;;;;20.00;7.43;;;12.10;1.00;;;;;;5016880;28;20462;-78
2023/10/03 01:27:51;;;;;;;23.67;8.40;;;12.30;1.00;;;;;;4999830;28;20529;-78
2023/10/03 01:30:21;;;;;;;22.23;8.77;;;12.10;1.00;;;;;;5013582;28;20829;-78
2023/10/03 01:32:57;;;;;;;25.87;8.67;;;12.10;1.00;;;;;;5008246;28;20975;-77
2023/10/03 01:35:27;;;;;;;25.37;8.20;;;12.10;1.00;;;;;;5028569;28;20473;-78
2023/10/03 01:38:05;;;;;;;31.37;8.40;;;12.00;1.00;;;;;;5017254;28;20930;-77
2023/10/03 01:40:33;;;;;;;21.50;8.00;;;12.00;1.00;;;;;;5013572;28;20480;-78
2023/10/03 01:43:03;;;;;;;20.40;7.70;;;12.20;1.00;;;;;;5019503;28;20424;-78
2023/10/03 01:45:39;;;;;;;20.63;7.70;;;12.10;1.00;;;;;;5013780;28;20412;-78
2023/10/03 01:55:26;;;;;;;23.90;8.60;;;12.00;1.00;;;;;;5008869;28;20558;-80
2023/10/03 01:57:58;;;;;;;21.97;8.60;;;12.00;1.00;;;;;;5008097;28;20431;-78
2023/10/03 02:04:32;;;;;;;22.67;7.60;;;12.00;1.00;;;;;;5016367;28;20411;-78
2023/10/03 02:06:58;;;;;;;20.00;7.40;;;12.00;1.90;;;;;;4995025;28;20432;-78
2023/10/03 02:09:51;;;;;;;24.07;8.50;;;12.00;3.00;;;;;;5013518;28;20451;-78
2023/10/03 02:12:33;;;;;;;18.23;7.67;;;12.00;3.80;;;;;;5013909;28;20651;-80
2023/10/03 02:18:27;;;;;;;23.43;8.50;;;12.00;3.00;;;;;;5022487;28;20422;-80
2023/10/03 02:21:41;;;;;;;16.97;7.33;;;12.00;3.10;;;;;;5014190;28;20751;-81
2023/10/03 02:24:21;;;;;;;21.43;7.97;;;12.00;2.90;;;;;;5013459;28;20498;-81
2023/10/03 02:26:47;;;;;;;36.17;9.97;;;12.00;5.30;;;;;;5003873;28;20438;-80
2023/10/03 02:29:33;;;;;;;26.30;9.97;;;11.90;1.60;;;;;;5012525;28;20456;-80
2023/10/03 02:32:51;;;;;;;36.27;10.97;;;12.00;3.80;;;;;;5005567;28;20173;-80
2023/10/03 02:35:25;;;;;;;23.93;9.37;;;12.00;5.20;;;;;;5009164;28;20477;-81
2023/10/03 02:37:57;;;;;;;27.40;9.67;;;12.20;5.50;;;;;;5012225;28;20431;-81
2023/10/03 02:44:15;;;;;;;30.43;10.37;;;12.10;7.40;;;;;;5013815;28;20409;-81
2023/10/03 02:46:51;;;;;;;23.20;8.90;;;12.20;7.10;;;;;;4993930;28;20440;-80
2023/10/03 02:49:18;;;;;;;24.43;9.10;;;12.20;9.90;;;;;;5010196;28;20941;-80
2023/10/03 02:52:39;;;;;;;35.90;11.10;;;12.20;11.00;;;;;;5012418;28;20451;-80
2023/10/03 02:55:51;;;;;;;31.10;9.80;;;12.30;12.10;;;;;;5011185;28;20424;-79
2023/10/03 02:58:56;;;;;;;34.30;9.90;;;12.40;12.10;;;;;;5026235;28;20918;-82
2023/10/03 03:01:39;;;;;;;24.80;9.73;;;12.40;12.40;;;;;;5014648;28;20455;-80
2023/10/03 03:04:12;;;;;;;37.57;11.50;;;12.50;12.60;;;;;;5001053;28;20779;-81
2023/10/03 03:06:51;;;;;;;25.77;10.40;;;12.50;14.40;;;;;;5017636;28;20431;-82
2023/10/03 03:09:23;;;;;;;26.07;9.50;;;12.70;15.80;;;;;;5012020;28;20464;-81
2023/10/03 03:15:22;;;;;;;28.30;9.57;;;12.70;15.00;;;;;;5019376;28;20406;-81
2023/10/03 03:17:51;;;;;;;27.37;9.80;;;12.60;14.60;;;;;;5007682;28;20467;-81
2023/10/03 03:20:49;;;;;;;29.70;11.17;;;12.70;14.40;;;;;;5016422;28;20861;-81
2023/10/03 03:24:09;;;;;;;36.57;11.00;;;12.70;14.10;;;;;;5016197;28;20459;-80
2023/10/03 03:26:39;;;;;;;39.77;10.30;;;12.70;11.70;;;;;;5014102;28;20908;-80
2023/10/03 03:29:22;;;;;;;28.20;9.63;;;12.70;15.20;;;;;;5011835;28;20459;-81
2023/10/03 03:31:50;;;;;;;28.83;10.37;;;12.70;14.70;;;;;;5018213;28;20942;-80
2023/10/03 03:34:16;;;;;;;31.23;10.93;;;12.60;15.00;;;;;;5021080;28;20424;-81
2023/10/03 03:46:51;;;;;;;37.40;10.43;;;12.80;16.00;;;;;;5022357;28;20515;-81
2023/10/03 03:49:19;;;;;;;36.13;11.50;;;12.90;16.30;;;;;;5021083;28;20422;-80
2023/10/03 03:51:51;;;;;;;29.40;10.87;;;12.90;16.20;;;;;;5019313;28;20451;-81
2023/10/03 03:54:44;;;;;;;37.43;12.03;;;12.90;16.20;;;;;;5016108;28;20398;-81
2023/10/03 04:01:23;;;;;;;29.10;10.60;;;13.00;16.10;;;;;;5010078;28;20470;-78
2023/10/03 04:04:12;;;;;;;31.63;10.63;;;13.00;14.90;;;;;;5011459;28;20423;-78
2023/10/03 04:06:39;;;;;;;23.30;9.43;;;12.90;15.00;;;;;;5011531;28;20403;-77
2023/10/03 04:09:09;;;;;;;29.47;11.07;;;12.90;15.80;;;;;;5012865;28;20538;-78
2023/10/03 04:11:39;;;;;;;30.77;11.20;;;13.00;14.50;;;;;;5024495;28;20411;-78
2023/10/03 04:14:09;;;;;;;37.10;11.77;;;13.10;12.70;;;;;;5016609;28;20427;-78
2023/10/03 04:16:45;;;;;;;25.73;10.67;;;13.40;12.40;;;;;;5012266;28;20468;-78
2023/10/03 04:19:15;;;;;;;26.00;10.37;;;13.00;11.40;;;;;;5006157;28;20402;-78
2023/10/03 04:25:56;;;;;;;37.40;11.97;;;13.10;10.00;;;;;;5008675;28;20403;-91
2023/10/03 04:31:46;;;;;;;23.23;9.97;;;13.20;8.40;;;;;;5006825;28;20801;-91
2023/10/03 04:34:27;;;;;;;46.30;11.20;;;13.20;9.00;;;;;;5026603;28;20397;-91
2023/10/03 04:36:57;;;;;;;27.47;11.03;;;13.20;7.20;;;;;;5027440;28;20390;-91
2023/10/03 04:39:51;;;;;;;39.77;11.83;;;13.20;3.90;;;;;;5013955;28;20428;-91
2023/10/03 04:42:17;;;;;;;28.63;10.63;;;13.20;6.00;;;;;;5009231;28;20419;-91
2023/10/03 04:44:51;;;;;;;26.07;10.87;;;13.20;5.90;;;;;;5005692;28;20425;-91
2023/10/03 04:48:02;;;;;;;24.40;9.87;;;13.20;6.80;;;;;;5014379;28;20425;-91
2023/10/03 04:51:08;;;;;;;27.53;9.97;;;13.20;6.40;;;;;;5020783;28;20505;-91
2023/10/03 04:54:03;;;;;;;29.80;10.20;;;13.20;5.80;;;;;;5023926;28;20463;-91
2023/10/03 04:56:29;;;;;;;32.40;11.80;;;13.20;5.80;;;;;;5011910;28;20398;-91
2023/10/03 04:58:55;;;;;;;22.07;10.07;;;13.20;5.20;;;;;;5024295;28;20782;-88
2023/10/03 05:01:39;;;;;;;27.57;10.07;;;13.30;4.80;;;;;;5013984;28;20173;-88
2023/10/03 05:04:51;;;;;;;25.53;11.20;;;13.30;4.00;;;;;;5018127;28;20412;-88
2023/10/03 05:07:56;;;;;;;29.07;10.63;;;13.20;3.00;;;;;;5013779;28;20448;-88
2023/10/03 05:13:45;;;;;;;35.27;11.17;;;13.20;2.90;;;;;;5012688;28;20813;-88
2023/10/03 05:19:41;;;;;;;26.53;10.90;;;13.20;2.20;;;;;;5016150;28;20475;-88
2023/10/03 05:22:08;;;;;;;26.83;10.00;;;13.20;2.30;;;;;;4998605;28;20394;-88
2023/10/03 05:25:26;;;;;;;33.27;11.10;;;13.20;3.70;;;;;;5012614;28;20408;-88
2023/10/03 05:27:53;;;;;;;39.40;12.33;;;13.20;4.00;;;;;;5010338;28;20965;-91
2023/10/03 05:30:38;;;;;;;34.07;11.33;;;13.30;2.90;;;;;;5011163;28;20391;-91
2023/10/03 05:40:32;;;;;;;29.27;10.43;;;13.30;3.00;;;;;;5010522;28;20394;-91
2023/10/03 05:43:15;;;;;;;27.83;11.17;;;13.30;3.00;;;;;;5013735;28;20402;-91
2023/10/03 05:46:32;;;;;;;27.20;10.50;;;13.40;3.80;;;;;;5012602;28;20442;-91
2023/10/03 05:48:58;;;;;;;37.97;10.57;;;13.40;3.50;;;;;;5013658;28;20434;-91
2023/10/03 05:51:39;;;;;;;28.80;10.27;;;13.40;3.80;;;;;;5016821;28;20440;-91
2023/10/03 05:54:51;;;;;;;28.67;10.47;;;13.50;3.10;;;;;;5015241;28;20184;-91
2023/10/03 05:57:41;;;;;;;25.60;11.40;;;13.50;2.20;;;;;;5015149;28;20907;-90
2023/10/03 06:00:11;;;;;;;23.40;9.67;;;13.60;2.90;;;;;;5010404;28;20436;-89
2023/10/03 06:02:39;;;;;;;27.30;12.20;;;13.60;3.10;;;;;;5012696;28;20553;-90
2023/10/03 06:05:11;;;;;;;31.80;11.03;;;13.60;6.50;;;;;;5009292;28;20429;-90
2023/10/03 06:07:37;;;;;;;29.93;11.10;;;13.70;6.60;;;;;;5008653;28;20459;-90
2023/10/03 06:10:22;;;;;;;29.10;11.67;;;13.90;7.00;;;;;;5028591;28;20430;-89
2023/10/03 06:12:52;;;;;;;31.20;11.07;;;14.00;7.40;;;;;;5015464;28;20408;-89
2023/10/03 06:18:51;;;;;;;29.03;11.20;;;14.20;6.00;;;;;;5012610;28;20992;-89
2023/10/03 06:21:39;;;;;;;32.70;12.00;;;14.30;8.70;;;;;;5011254;28;20394;-88
2023/10/03 06:24:23;;;;;;;34.30;11.90;;;14.40;8.50;;;;;;5009553;28;20390;-89
2023/10/03 06:26:57;;;;;;;40.20;12.73;;;14.50;5.80;;;;;;5017895;28;20830;-90
2023/10/03 06:30:08;;;;;;;44.50;13.77;;;14.60;4.40;;;;;;5006027;28;20455;-89
2023/10/03 06:32:57;;;;;;;34.80;12.43;;;14.70;4.50;;;;;;5016147;28;20961;-89
2023/10/03 06:36:14;;;;;;;31.43;12.37;;;14.90;7.20;;;;;;5026815;28;20497;-90
2023/10/03 06:39:05;;;;;;;28.03;11.87;;;15.00;7.00;;;;;;5023508;28;20395;-90
2023/10/03 06:41:33;;;;;;;30.90;11.73;;;15.30;1.40;;;;;;5003980;28;20437;-89
2023/10/03 06:47:23;;;;;;;27.50;11.57;;;15.40;4.30;;;;;;5021062;28;20777;-89
2023/10/03 06:49:57;;;;;;;29.90;11.60;;;15.50;1.20;;;;;;5025393;28;20443;-89
2023/10/03 06:52:23;;;;;;;27.23;11.20;;;15.60;1.90;;;;;;5019418;28;20431;-90
2023/10/03 06:55:11;;;;;;;28.63;11.17;;;15.70;1.00;;;;;;5016115;28;20569;-89
2023/10/03 06:57:51;;;;;;;25.37;10.00;;;15.80;1.00;;;;;;5012284;28;20180;-89
2023/10/03 07:00:28;;;;;;;35.30;12.23;;;15.90;1.50;;;;;;5015147;28;21079;-89
2023/10/03 07:03:03;;;;;;;27.03;10.67;;;15.90;1.00;;;;;;5015106;28;20400;-89
2023/10/03 07:05:29;;;;;;;28.90;11.00;;;16.00;1.00;;;;;;5016784;28;21016;-89
2023/10/03 07:07:57;;;;;;;23.07;10.60;;;16.10;1.00;;;;;;5015792;28;20522;-88
2023/10/03 07:10:42;;;;;;;30.47;11.03;;;16.20;1.00;;;;;;5012699;28;20175;-87
2023/10/03 07:16:46;;;;;;;25.40;10.70;;;16.40;1.00;;;;;;5009410;28;20451;-85
2023/10/03 07:22:45;;;;;;;27.70;10.97;;;16.60;1.00;;;;;;5004250;28;20412;-85
2023/10/03 07:25:36;;;;;;;25.13;10.80;;;16.60;1.00;;;;;;5013561;28;20454;-86
2023/10/03 07:28:02;;;;;;;31.83;10.73;;;16.70;1.00;;;;;;5010432;28;20547;-87
2023/10/03 07:31:02;;;;;;;29.03;10.57;;;16.80;1.00;;;;;;5021310;28;20898;-86
2023/10/03 07:33:33;;;;;;;28.63;11.70;;;16.90;1.00;;;;;;5018724;28;20418;-89
2023/10/03 07:36:27;;;;;;;32.00;11.60;;;16.90;1.00;;;;;;5014536;28;20436;-89
2023/10/03 07:39:26;;;;;;;27.33;10.93;;;17.00;1.00;;;;;;5007251;28;20440;-89
2023/10/03 07:41:57;;;;;;;153.63;80.73;;;17.20;1.00;;;;;;5012692;28;20399;-89
2023/10/03 07:44:39;;;;;;;28.43;10.67;;;17.30;1.00;;;;;;5030303;28;20438;-89
2023/10/03 07:50:29;;;;;;;25.87;10.60;;;17.50;1.00;;;;;;5007178;28;20917;-89
2023/10/03 07:52:57;;;;;;;24.50;10.80;;;17.60;1.00;;;;;;5015826;28;20512;-89
2023/10/03 07:55:35;;;;;;;26.30;9.97;;;17.80;1.00;;;;;;5011720;28;20419;-89
2023/10/03 07:58:03;;;;;;;21.43;9.27;;;17.80;1.00;;;;;;5039224;28;20864;-89
2023/10/03 08:00:45;;;;;;;25.20;9.20;;;18.00;1.00;;;;;;5015287;28;20484;-89
2023/10/03 08:06:45;;;;;;;26.97;10.03;;;18.40;1.00;;;;;;5004048;28;20480;-89
2023/10/03 08:09:27;;;;;;;18.13;8.50;;;18.60;1.00;;;;;;5014558;28;20456;-89
2023/10/03 08:12:29;;;;;;;21.00;8.20;;;18.70;1.00;;;;;;5021144;28;20430;-89
2023/10/03 08:14:57;;;;;;;22.73;8.10;;;18.80;1.00;;;;;;5021675;28;20784;-88
2023/10/03 08:17:36;;;;;;;15.27;7.27;;;18.90;1.00;;;;;;5021087;28;20778;-84
2023/10/03 08:20:53;;;;;;;17.60;6.97;;;19.10;1.00;;;;;;5024103;28;20443;-88
2023/10/03 08:23:27;;;;;;;21.33;9.47;;;19.30;1.00;;;;;;5015761;28;20439;-88
2023/10/03 08:29:21;;;;;;;12.50;6.90;;;19.60;1.00;;;;;;5014926;28;21034;-87
2023/10/03 08:31:57;;;;;;;14.70;6.27;;;19.80;1.00;;;;;;5022451;28;20507;-89
2023/10/03 08:34:57;;;;;;;16.20;7.37;;;19.90;1.00;;;;;;5011432;28;20406;-87
2023/10/03 08:44:15;;;;;;;14.10;6.37;;;20.40;1.00;;;;;;4995882;28;20933;-88
2023/10/03 08:46:58;;;;;;;12.60;6.50;;;20.50;1.00;;;;;;4994165;28;20452;-87
2023/10/03 08:53:12;;;;;;;11.10;6.17;;;20.90;1.00;;;;;;5007601;28;21035;-86
2023/10/03 09:02:24;;;;;;;11.10;6.00;;;21.10;1.00;;;;;;4995479;28;20562;-87
2023/10/03 09:04:58;;;;;;;9.07;5.50;;;21.20;1.00;;;;;;5026951;28;20419;-87
2023/10/03 09:07:43;;;;;;;9.77;5.43;;;21.30;1.00;;;;;;5030269;28;20784;-86
2023/10/03 09:10:29;;;;;;;13.17;6.53;;;21.40;1.00;;;;;;5023630;28;20953;-87
2023/10/03 09:13:28;;;;;;;13.60;5.60;;;21.40;1.00;;;;;;5009578;28;20943;-87
2023/10/03 09:16:27;;;;;;;12.17;5.50;;;21.50;1.00;;;;;;5015852;28;20424;-89
2023/10/03 09:19:50;;;;;;;12.90;5.60;;;21.60;1.00;;;;;;4994294;28;20475;-88
2023/10/03 09:22:31;;;;;;;11.43;5.57;;;21.50;1.00;;;;;;4974060;28;20457;-89
2023/10/03 09:25:10;;;;;;;9.30;5.17;;;21.50;1.00;;;;;;4985753;28;20511;-89
2023/10/03 09:30:57;;;;;;;11.13;5.80;;;21.60;1.00;;;;;;4993512;28;20419;-85
2023/10/03 09:33:38;;;;;;;21.63;7.53;;;21.70;1.00;;;;;;5012570;28;20416;-90
2023/10/03 09:36:57;;;;;;;12.00;5.93;;;21.80;1.00;;;;;;4985497;28;20192;-86
2023/10/03 09:39:27;;;;;;;18.80;6.60;;;21.90;1.00;;;;;;4993028;28;20830;-86
2023/10/03 09:41:57;;;;;;;14.13;6.20;;;22.00;1.00;;;;;;4977546;28;20425;-88
2023/10/03 09:45:00;;;;;;;9.80;5.47;;;22.10;1.00;;;;;;4976525;28;20520;-87
2023/10/03 09:47:45;;;;;;;10.23;5.60;;;22.30;1.00;;;;;;4993415;28;20421;-89
2023/10/03 09:53:33;;;;;;;13.20;6.40;;;22.50;1.00;;;;;;5012390;28;20534;-90
2023/10/03 09:56:35;;;;;;;12.30;6.27;;;22.60;1.00;;;;;;5025574;28;20783;-88
2023/10/03 09:59:27;;;;;;;10.60;6.10;;;22.70;1.00;;;;;;5028087;28;20787;-89
2023/10/03 10:01:59;;;;;;;7.90;4.53;;;22.70;1.00;;;;;;5025562;28;20438;-89
2023/10/03 10:04:30;;;;;;;10.00;5.43;;;22.80;1.00;;;;;;5013395;28;20420;-90
2023/10/03 10:07:29;;;;;;;9.83;4.80;;;22.70;1.00;;;;;;5013268;28;20416;-87
2023/10/03 10:10:27;;;;;;;8.77;5.57;;;22.80;1.00;;;;;;5018765;28;20978;-89
2023/10/03 10:13:29;;;;;;;9.13;4.80;;;22.60;1.00;;;;;;5027844;28;20445;-89
2023/10/03 10:16:28;;;;;;;13.47;5.57;;;22.80;1.00;;;;;;5010174;28;20429;-88
2023/10/03 10:18:57;;;;;;;8.50;5.27;;;22.90;1.00;;;;;;5020369;28;20436;-86
2023/10/03 10:21:51;;;;;;;10.93;5.33;;;23.00;1.00;;;;;;5025919;28;20825;-86
2023/10/03 10:24:39;;;;;;;12.80;5.20;;;23.20;1.00;;;;;;5017905;28;20423;-88
2023/10/03 10:27:29;;;;;;;18.60;5.50;;;23.30;1.00;;;;;;5002986;28;20415;-86
2023/10/03 10:30:22;;;;;;;17.67;5.73;;;23.10;1.00;;;;;;5012627;28;20442;-86
2023/10/03 10:33:27;;;;;;;9.13;5.23;;;23.00;1.00;;;;;;5012993;28;20419;-89
2023/10/03 10:36:10;;;;;;;12.10;5.70;;;22.80;1.00;;;;;;5020900;28;21315;-89
2023/10/03 10:38:57;;;;;;;10.77;5.53;;;22.50;1.00;;;;;;5015049;28;20420;-89
2023/10/03 10:41:27;;;;;;;13.87;5.37;;;22.50;1.00;;;;;;5012577;28;20429;-90
2023/10/03 10:47:15;;;;;;;12.73;5.30;;;;;;;;;;5014039;28;20425;-89
2023/10/03 10:49:58;;;;;;;36.73;6.40;;;22.40;1.00;;;;;;5012981;28;20442;-90
2023/10/03 10:52:48;;;;;;;12.77;6.97;;;22.50;1.00;;;;;;5012765;28;20897;-90
2023/10/03 10:56:03;;;;;;;10.47;5.57;;;22.80;1.00;;;;;;5014349;28;20452;-89
2023/10/03 10:58:50;;;;;;;17.63;5.83;;;22.90;1.00;;;;;;5029813;28;20429;-90
2023/10/03 11:01:27;;;;;;;10.60;5.80;;;23.10;1.00;;;;;;5018321;28;20433;-84
2023/10/03 11:03:57;;;;;;;11.10;5.50;;;23.10;1.00;;;;;;5021817;28;20534;-84
2023/10/03 11:06:27;;;;;;;13.63;5.43;;;23.20;1.00;;;;;;4992431;28;20407;-85
2023/10/03 11:08:53;;;;;;;10.97;5.53;;;23.30;1.00;;;;;;4999273;28;20969;-84
2023/10/03 11:11:32;;;;;;;13.30;5.40;;;23.50;1.00;;;;;;5015495;28;20415;-84
2023/10/03 11:14:03;;;;;;;8.27;4.53;;;23.40;1.00;;;;;;5015474;28;20171;-83
2023/10/03 11:16:39;;;;;;;9.10;5.50;;;23.60;1.00;;;;;;5015685;28;20925;-85
2023/10/03 11:19:30;;;;;;;13.53;5.30;;;23.70;1.00;;;;;;5015771;28;20739;-84
2023/10/03 11:21:57;;;;;;;9.57;6.00;;;23.70;1.00;;;;;;5024101;28;21015;-85
2023/10/03 11:24:38;;;;;;;20.40;5.07;;;23.60;1.00;;;;;;5026296;28;20497;-84
2023/10/03 11:27:03;;;;;;;10.93;5.47;;;23.50;1.00;;;;;;5027204;28;20774;-85
2023/10/03 11:29:57;;;;;;;9.23;5.60;;;23.60;1.00;;;;;;5015217;28;20462;-88
2023/10/03 11:32:39;;;;;;;12.13;5.07;;;23.80;1.00;;;;;;5015666;28;20180;-83
2023/10/03 11:35:27;;;;;;;8.40;5.33;;;23.90;1.00;;;;;;5012041;28;20913;-89
2023/10/03 11:38:06;;;;;;;20.40;6.80;;;24.00;1.00;;;;;;4997253;28;20477;-85
2023/10/03 11:40:51;;;;;;;9.50;5.40;;;23.90;1.00;;;;;;5011345;28;20451;-85
2023/10/03 11:43:57;;;;;;;13.27;4.83;;;24.10;1.00;;;;;;5006593;28;20515;-85
2023/10/03 11:46:44;;;;;;;9.10;4.83;;;24.20;1.00;;;;;;5035190;28;20910;-89
2023/10/03 11:49:16;;;;;;;11.40;4.90;;;24.60;1.00;;;;;;5001115;28;20459;-86
2023/10/03 11:51:45;;;;;;;11.40;5.80;;;24.80;1.00;;;;;;5010477;28;20527;-89
2023/10/03 11:54:14;;;;;;;10.00;5.40;;;24.80;1.00;;;;;;5015848;28;20436;-86
2023/10/03 11:56:57;;;;;;;10.77;5.90;;;24.60;1.00;;;;;;5025616;28;20519;-86
2023/10/03 11:59:33;;;;;;;10.83;5.60;;;24.40;1.00;;;;;;5010019;28;20522;-87
2023/10/03 12:05:27;;;;;;;8.90;5.47;;;24.80;1.00;;;;;;5007424;28;20488;-88
2023/10/03 12:07:57;;;;;;;16.23;6.07;;;24.80;1.00;;;;;;5015060;28;20514;-86
2023/10/03 12:10:31;;;;;;;10.70;5.00;;;24.80;1.00;;;;;;5014885;28;20422;-91
2023/10/03 12:12:57;;;;;;;18.73;5.90;;;24.70;1.00;;;;;;5014776;28;20515;-90
2023/10/03 12:15:57;;;;;;;12.93;5.30;;;24.80;1.00;;;;;;5014848;28;20444;-90
2023/10/03 12:18:27;;;;;;;15.80;5.90;;;24.90;1.00;;;;;;5014493;28;20933;-91
2023/10/03 12:20:54;;;;;;;9.80;5.17;;;24.90;1.00;;;;;;5014371;28;20774;-89
2023/10/03 12:23:27;;;;;;;9.37;5.20;;;;;;;;;;5014375;28;20518;-90
2023/10/03 12:25:58;;;;;;;13.37;5.27;;;24.70;1.00;;;;;;5014699;28;20916;-92
2023/10/03 12:28:58;;;;;;;15.03;5.90;;;24.80;1.00;;;;;;5018600;28;20461;-88
2023/10/03 12:31:27;;;;;;;7.70;4.90;;;24.60;1.00;;;;;;5011289;28;20411;-91
2023/10/03 12:33:58;;;;;;;8.10;4.60;;;24.30;1.00;;;;;;5024562;28;20431;-90
2023/10/03 12:36:29;;;;;;;10.90;5.50;;;24.20;1.00;;;;;;5014595;28;20430;-93
2023/10/03 12:39:18;;;;;;;8.80;4.67;;;24.00;1.00;;;;;;5014825;28;20416;-92
2023/10/03 12:41:51;;;;;;;12.27;5.80;;;23.70;1.00;;;;;;5014676;28;20770;-87
2023/10/03 12:44:33;;;;;;;4.60;2.67;;;23.50;1.00;;;;;;5029279;28;20814;-88
2023/10/03 12:46:59;;;;;;;5.07;2.60;;;22.60;1.00;;;;;;5014763;28;20928;-90
2023/10/03 12:49:33;;;;;;;9.03;3.10;;;21.80;1.00;;;;;;5015916;28;20545;-88
2023/10/03 12:52:03;;;;;;;4.97;2.30;;;21.20;1.00;;;;;;5014175;28;20518;-88
2023/10/03 12:54:59;;;;;;;7.43;2.87;;;20.80;1.00;;;;;;5014236;28;20541;-89
2023/10/03 12:57:27;;;;;;;2.77;2.20;;;20.50;1.00;;;;;;5014101;28;20438;-88
2023/10/03 12:59:57;;;;;;;10.43;3.53;;;20.20;1.00;;;;;;5018383;28;20399;-88
2023/10/03 13:02:28;;;;;;;5.43;2.10;;;19.90;1.00;;;;;;5020996;28;20432;-88
2023/10/03 13:05:15;;;;;;;5.20;1.80;;;19.70;1.00;;;;;;5032474;28;21064;-89
2023/10/03 13:07:57;;;;;;;1.77;1.40;;;19.40;1.00;;;;;;5014508;28;20507;-89
2023/10/03 13:10:41;;;;;;;5.37;1.77;;;19.30;1.00;;;;;;5013611;28;20443;-89
2023/10/03 13:13:15;;;;;;;3.77;1.47;;;19.20;1.00;;;;;;5013793;28;20439;-89
2023/10/03 13:15:57;;;;;;;3.90;1.40;;;19.20;1.00;;;;;;5032066;28;20499;-89
2023/10/03 13:22:04;;;;;;;2.83;1.70;;;;;;;;;;5031172;28;20403;-88
2023/10/03 13:25:21;;;;;;;3.40;1.70;;;19.20;1.00;;;;;;5015099;28;20936;-88
2023/10/03 13:27:58;;;;;;;6.80;2.20;;;19.30;1.00;;;;;;5007882;28;20438;-89
2023/10/03 13:37:24;;;;;;;4.53;1.73;;;19.10;1.00;;;;;;5019576;28;20444;-92
2023/10/03 13:40:17;;;;;;;3.43;2.10;;;19.10;1.00;;;;;;5010909;28;20421;-87
2023/10/03 13:42:59;;;;;;;2.87;2.07;;;19.00;1.00;;;;;;5014927;28;20429;-88
2023/10/03 13:45:30;;;;;;;4.83;2.47;;;19.00;1.00;;;;;;5021860;28;20397;-90
2023/10/03 13:48:15;;;;;;;3.90;2.40;;;19.00;1.00;;;;;;5013530;28;20460;-89
2023/10/03 13:50:51;;;;;;;3.97;2.80;;;19.00;1.00;;;;;;5013003;28;20454;-86
2023/10/03 13:53:57;;;;;;;5.50;2.67;;;19.10;1.00;;;;;;5012806;28;20490;-87
2023/10/03 13:56:39;;;;;;;8.50;3.10;;;19.00;1.00;;;;;;5020817;28;20478;-89
2023/10/03 13:59:27;;;;;;;5.17;2.70;;;19.10;1.00;;;;;;5013054;28;20470;-89
2023/10/03 14:02:10;;;;;;;13.10;3.90;;;19.00;1.00;;;;;;5015763;28;20528;-87
2023/10/03 14:08:21;;;;;;;6.93;3.77;;;18.80;1.00;;;;;;4994384;28;20524;-89
2023/10/03 14:10:51;;;;;;;9.50;3.80;;;18.90;1.00;;;;;;5012460;28;20464;-90
2023/10/03 14:13:21;;;;;;;12.70;4.30;;;;;;;;;;5025861;28;20424;-91
2023/10/03 14:15:57;;;;;;;8.03;3.13;;;19.00;1.00;;;;;;5019226;28;20492;-91
2023/10/03 14:18:27;;;;;;;12.73;4.30;;;19.10;1.00;;;;;;5032977;28;20427;-90
2023/10/03 14:21:10;;;;;;;10.30;3.80;;;19.00;1.00;;;;;;5014503;28;20516;-90
2023/10/03 14:26:59;;;;;;;11.60;4.30;;;19.00;1.00;;;;;;5008876;28;20692;-87
2023/10/03 14:29:24;;;;;;;11.93;4.73;;;19.00;1.00;;;;;;5009716;28;20460;-89
2023/10/03 14:32:46;;;;;;;10.63;4.23;;;19.00;1.00;;;;;;5006123;28;20482;-88
2023/10/03 14:35:21;;;;;;;9.50;3.70;;;18.90;1.00;;;;;;5010169;28;20414;-89
2023/10/03 14:37:57;;;;;;;27.30;6.90;;;18.90;1.00;;;;;;5022811;28;20451;-82
2023/10/03 14:40:23;;;;;;;7.90;3.23;;;18.90;1.00;;;;;;5007709;28;20427;-82
2023/10/03 14:42:49;;;;;;;12.18;4.18;;;18.90;1.00;;;;;;5009987;28;20782;-82
2023/10/03 14:45:18;;;;;;;10.53;4.33;;;19.10;1.00;;;;;;5015172;28;20186;-82
2023/10/03 14:47:57;;;;;;;7.83;3.50;;;19.10;1.00;;;;;;5017139;28;20465;-82
2023/10/03 14:50:33;;;;;;;6.67;3.60;;;19.00;1.00;;;;;;5018098;28;20463;-81
2023/10/03 14:53:50;;;;;;;1.73;1.63;;;19.00;1.00;;;;;;5017532;28;20425;-82
2023/10/03 14:56:33;;;;;;;4.03;1.93;;;18.80;1.00;;;;;;5015696;28;20913;-81
2023/10/03 14:59:04;;;;;;;1.80;1.47;;;18.50;1.00;;;;;;5015142;28;20438;-81
2023/10/03 15:01:39;;;;;;;11.53;2.47;;;18.30;1.00;;;;;;5012143;28;20435;-93
2023/10/03 15:04:09;;;;;;;1.27;1.00;;;18.00;1.00;;;;;;5029082;28;20418;-93
2023/10/03 15:06:45;;;;;;;1.67;1.10;;;17.90;1.00;;;;;;5028513;28;20421;-91
2023/10/03 15:12:51;;;;;;;2.03;1.83;;;17.90;1.00;;;;;;5011417;28;20811;-90
2023/10/03 15:15:19;;;;;;;4.47;1.37;;;17.70;1.00;;;;;;5032029;28;20788;-88
2023/10/03 15:17:52;;;;;;;6.03;2.27;;;17.70;1.00;;;;;;5003456;28;20402;-92
2023/10/03 15:20:21;;;;;;;5.20;1.80;;;17.70;1.00;;;;;;5028270;28;20427;-88
2023/10/03 15:22:51;;;;;;;1.47;1.37;;;17.70;1.00;;;;;;5017758;28;20443;-88
2023/10/03 15:25:21;;;;;;;9.80;2.20;;;17.70;1.00;;;;;;5017686;28;20431;-87
2023/10/03 15:27:48;;;;;;;2.87;1.50;;;17.50;1.00;;;;;;5017691;28;21065;-85
2023/10/03 15:30:21;;;;;;;3.83;1.53;;;17.50;1.00;;;;;;5020427;28;20460;-85
2023/10/03 15:32:51;;;;;;;2.00;1.27;;;17.50;1.00;;;;;;5015553;28;20422;-85
2023/10/03 15:35:21;;;;;;;1.73;1.40;;;17.50;1.00;;;;;;5021976;28;20427;-85
2023/10/03 15:37:51;;;;;;;21.83;3.27;;;17.50;1.00;;;;;;5016754;28;20457;-85
2023/10/03 15:40:28;;;;;;;2.47;1.70;;;17.60;1.00;;;;;;5013175;28;20461;-88
2023/10/03 15:42:58;;;;;;;3.50;1.57;;;17.60;1.00;;;;;;5015503;28;20413;-88
2023/10/03 15:48:47;;;;;;;2.63;1.30;;;17.40;1.00;;;;;;5010950;28;20503;-87
2023/10/03 15:51:57;;;;;;;1.73;1.27;;;17.40;1.00;;;;;;5013272;28;20442;-93
2023/10/03 15:57:51;;;;;;;1.97;1.40;;;17.20;1.00;;;;;;4998793;28;20482;-91
2023/10/03 16:00:19;;;;;;;6.90;2.10;;;17.10;1.00;;;;;;5039124;28;20524;-83
2023/10/03 16:02:45;;;;;;;2.40;1.30;;;17.20;1.00;;;;;;5022540;28;20483;-85
2023/10/03 16:05:21;;;;;;;6.53;1.77;;;17.20;1.00;;;;;;5013856;28;20467;-85
2023/10/03 16:07:51;;;;;;;3.73;1.30;;;17.30;1.00;;;;;;5015106;28;20307;-86
2023/10/03 16:10:45;;;;;;;3.47;1.27;;;17.30;1.00;;;;;;5016208;28;20911;-87
2023/10/03 16:17:09;;;;;;;2.50;1.20;;;17.20;1.00;;;;;;5015474;28;20449;-88
2023/10/03 16:20:06;;;;;;;1.97;1.40;;;17.20;1.00;;;;;;5020056;28;20464;-86
2023/10/03 16:23:23;;;;;;;3.03;1.13;;;17.10;1.00;;;;;;5015653;28;20447;-88
2023/10/03 16:26:16;;;;;;;5.70;2.00;;;17.00;1.00;;;;;;5013650;28;20445;-87
2023/10/03 16:35:27;;;;;;;12.77;3.40;;;17.10;1.00;;;;;;5011110;28;20428;-89
2023/10/03 16:38:15;;;;;;;25.80;4.33;;;17.00;1.00;;;;;;4998598;28;20413;-88
2023/10/03 16:40:57;;;;;;;11.23;2.80;;;16.90;1.00;;;;;;5017509;28;20447;-88
2023/10/03 16:46:45;;;;;;;4.27;1.70;;;16.80;1.00;;;;;;5016029;28;20420;-86
2023/10/03 16:49:13;;;;;;;3.83;1.67;;;16.60;1.00;;;;;;5022705;28;20456;-90
2023/10/03 16:52:03;;;;;;;3.07;1.50;;;16.50;1.00;;;;;;5017947;28;20187;-88
2023/10/03 16:54:29;;;;;;;9.43;1.90;;;16.40;1.00;;;;;;5035630;28;20437;-87
2023/10/03 16:57:09;;;;;;;28.60;4.73;;;16.20;1.00;;;;;;5016224;28;20395;-86
2023/10/03 16:59:57;;;;;;;4.80;1.93;;;16.20;1.00;;;;;;5030903;28;20201;-88